Time;durP1;ratioP1;P1;durP2;ratioP2;P2;SDS_P1;SDS_P2;PMS_P1;PMS_P2;Temp;Humidity;BMP_temperature;BMP_pressure;BME280_temperature;BME280_humidity;BME280_pressure;Samples;Min_cycle;Max_cycle;Signal;HPM_P1;HPM_P2
2022/10/12 03:01:10;;;;;;;1.20;0.90;;;21.10;49.20;;;;;;5581303;23;45876;-63
2022/10/12 03:03:36;;;;;;;1.15;0.90;;;21.00;49.20;;;;;;4866054;29;46458;-60
2022/10/12 03:06:01;;;;;;;1.23;1.00;;;21.00;49.20;;;;;;4872634;29;45507;-60
2022/10/12 03:08:27;;;;;;;1.98;1.02;;;21.00;49.20;;;;;;4892643;28;45603;-60
2022/10/12 03:10:52;;;;;;;1.38;1.17;;;21.00;49.20;;;;;;4888704;28;45398;-60
2022/10/12 03:13:18;;;;;;;1.17;1.08;;;21.00;49.10;;;;;;4872231;29;46094;-61
2022/10/12 03:15:44;;;;;;;0.90;0.80;;;21.00;49.20;;;;;;4867872;29;45217;-61
2022/10/12 03:18:09;;;;;;;2.00;1.17;;;21.00;49.10;;;;;;4858320;29;45355;-60
2022/10/12 03:20:35;;;;;;;1.85;1.40;;;21.00;49.10;;;;;;4858230;29;45213;-59
2022/10/12 03:23:00;;;;;;;1.00;0.90;;;21.00;49.10;;;;;;4868427;29;45729;-60
2022/10/12 03:25:26;;;;;;;1.15;1.02;;;21.00;49.10;;;;;;4873389;29;45481;-61
2022/10/12 03:27:51;;;;;;;1.38;1.08;;;21.00;49.20;;;;;;4873810;29;45097;-59
2022/10/12 03:30:17;;;;;;;1.98;1.30;;;21.00;49.10;;;;;;4852519;29;45473;-61
2022/10/12 03:32:42;;;;;;;1.65;1.20;;;21.00;49.10;;;;;;4855888;29;46798;-61
2022/10/12 03:35:08;;;;;;;1.27;1.05;;;21.00;49.20;;;;;;4873928;29;45494;-61
2022/10/12 03:37:34;;;;;;;1.00;0.90;;;21.00;49.20;;;;;;4870337;29;45480;-61
2022/10/12 03:40:00;;;;;;;1.17;0.98;;;21.00;49.20;;;;;;4876025;29;45622;-62
2022/10/12 03:42:25;;;;;;;1.35;1.23;;;21.00;49.20;;;;;;4858525;29;46283;-61
2022/10/12 03:44:51;;;;;;;1.35;1.25;;;21.00;49.20;;;;;;4874286;29;45572;-60
2022/10/12 03:47:16;;;;;;;1.42;1.20;;;21.00;49.20;;;;;;4875407;29;45582;-60
2022/10/12 03:49:42;;;;;;;1.15;1.02;;;21.00;49.20;;;;;;4855373;29;45264;-61
2022/10/12 03:52:07;;;;;;;1.90;1.30;;;21.00;49.20;;;;;;4872309;29;45459;-62
2022/10/12 03:54:33;;;;;;;1.08;0.98;;;21.00;49.20;;;;;;4870952;29;45081;-60
2022/10/12 03:56:59;;;;;;;1.90;1.20;;;20.90;49.10;;;;;;4872677;29;45145;-62
2022/10/12 03:59:24;;;;;;;1.58;1.30;;;20.90;49.20;;;;;;4869916;29;45310;-61
2022/10/12 04:01:50;;;;;;;1.50;1.20;;;20.90;49.20;;;;;;4851583;29;46225;-62
2022/10/12 04:04:15;;;;;;;1.02;0.85;;;20.90;49.20;;;;;;4867983;29;45506;-62
2022/10/12 04:06:41;;;;;;;1.58;1.40;;;21.00;49.20;;;;;;4855962;29;46159;-61
2022/10/12 04:09:07;;;;;;;3.75;1.42;;;20.90;49.30;;;;;;4870105;29;44970;-62
2022/10/12 04:11:32;;;;;;;3.92;1.20;;;20.90;49.20;;;;;;4855967;29;46787;-60
2022/10/12 04:13:58;;;;;;;1.50;1.30;;;20.90;49.20;;;;;;4874377;29;45508;-59
2022/10/12 04:16:23;;;;;;;1.55;1.27;;;20.90;49.20;;;;;;4873916;29;45488;-60
2022/10/12 04:18:49;;;;;;;1.30;1.15;;;20.90;49.10;;;;;;4872912;29;45483;-60
2022/10/12 04:21:15;;;;;;;2.80;1.40;;;20.90;49.10;;;;;;4873776;29;45655;-61
2022/10/12 04:23:40;;;;;;;1.25;1.15;;;20.90;49.10;;;;;;4841735;29;45254;-62
2022/10/12 04:26:06;;;;;;;1.42;1.20;;;20.90;49.10;;;;;;4872283;29;45157;-62
2022/10/12 04:28:32;;;;;;;1.45;1.13;;;20.90;49.10;;;;;;4873532;29;45460;-60
2022/10/12 04:30:57;;;;;;;1.90;1.30;;;20.90;49.10;;;;;;4867627;29;44963;-61
2022/10/12 04:33:23;;;;;;;1.48;1.30;;;20.90;49.10;;;;;;4872145;29;45211;-61
2022/10/12 04:35:48;;;;;;;1.20;1.10;;;20.90;49.10;;;;;;4872416;29;45584;-60
2022/10/12 04:38:14;;;;;;;1.55;1.17;;;20.90;49.10;;;;;;4860707;29;45754;-62
2022/10/12 04:40:40;;;;;;;1.20;1.10;;;20.90;49.10;;;;;;4872413;29;46193;-62
2022/10/12 04:43:05;;;;;;;1.40;1.05;;;20.90;49.10;;;;;;4870223;29;44785;-61
2022/10/12 04:45:31;;;;;;;1.70;1.38;;;20.90;49.10;;;;;;4878462;29;45476;-63
2022/10/12 04:47:56;;;;;;;1.90;1.40;;;20.90;49.10;;;;;;4865974;29;44858;-61
2022/10/12 04:50:22;;;;;;;1.45;1.20;;;20.90;49.10;;;;;;4872257;29;45373;-61
2022/10/12 04:52:48;;;;;;;2.58;1.42;;;20.90;49.10;;;;;;4872777;29;45342;-62
2022/10/12 04:55:13;;;;;;;1.30;1.13;;;20.90;49.10;;;;;;4855539;29;45340;-61
2022/10/12 04:57:39;;;;;;;1.77;1.30;;;20.90;49.10;;;;;;4858933;29;45644;-59
2022/10/12 05:00:06;;;;;;;1.65;1.25;;;20.90;49.10;;;;;;4856767;29;45467;-62
2022/10/12 05:02:31;;;;;;;1.13;0.90;;;20.90;49.20;;;;;;4838174;29;44966;-61
2022/10/12 05:04:57;;;;;;;1.45;1.35;;;20.80;49.10;;;;;;4857455;29;45674;-60
2022/10/12 05:07:22;;;;;;;2.70;1.20;;;20.80;49.10;;;;;;4855327;29;45438;-59
2022/10/12 05:09:48;;;;;;;1.33;0.98;;;20.80;49.20;;;;;;4873359;29;46298;-61
2022/10/12 05:12:13;;;;;;;1.30;1.20;;;20.80;49.10;;;;;;4856441;29;45516;-61
2022/10/12 05:14:39;;;;;;;1.38;1.25;;;20.80;49.10;;;;;;4874826;29;45127;-62
2022/10/12 05:17:05;;;;;;;1.48;1.25;;;20.80;49.10;;;;;;4873146;29;45390;-60
2022/10/12 05:19:30;;;;;;;1.55;1.45;;;20.80;49.10;;;;;;4852168;29;45852;-60
2022/10/12 05:21:56;;;;;;;2.05;1.38;;;20.80;49.30;;;;;;4877219;29;44967;-61
2022/10/12 05:24:21;;;;;;;3.30;1.30;;;20.80;49.20;;;;;;4870721;29;45439;-61
2022/10/12 05:26:47;;;;;;;1.67;1.45;;;20.80;49.10;;;;;;4866995;29;45493;-61
2022/10/12 05:29:12;;;;;;;1.13;1.02;;;20.80;49.10;;;;;;4872103;29;45455;-61
2022/10/12 05:31:38;;;;;;;1.60;1.50;;;20.80;49.20;;;;;;4849485;29;46125;-60
2022/10/12 05:34:03;;;;;;;1.58;1.25;;;20.70;49.10;;;;;;4874211;29;45464;-60
2022/10/12 05:36:29;;;;;;;1.52;1.40;;;20.70;49.10;;;;;;4876507;29;45036;-59
2022/10/12 05:38:55;;;;;;;1.55;1.30;;;20.70;49.10;;;;;;4874082;29;45440;-63
2022/10/12 05:41:20;;;;;;;1.02;0.93;;;20.70;49.10;;;;;;4853978;29;45558;-61
2022/10/12 05:43:46;;;;;;;1.27;1.10;;;20.70;49.10;;;;;;4854924;29;45067;-60
2022/10/12 05:46:12;;;;;;;1.88;1.42;;;20.80;49.20;;;;;;4876074;29;45415;-61
2022/10/12 05:48:37;;;;;;;2.13;1.40;;;20.70;49.20;;;;;;4860335;29;45319;-60
2022/10/12 05:51:03;;;;;;;1.83;1.50;;;20.80;49.20;;;;;;4877306;29;45455;-61
2022/10/12 05:53:28;;;;;;;1.33;1.10;;;20.70;49.20;;;;;;4877399;29;45227;-60
2022/10/12 05:55:55;;;;;;;2.05;1.48;;;20.70;49.20;;;;;;4859936;29;45148;-59
2022/10/12 05:58:21;;;;;;;1.40;1.30;;;20.70;49.30;;;;;;4875403;29;45614;-63
2022/10/12 06:00:47;;;;;;;1.48;1.38;;;20.70;49.20;;;;;;4839442;29;45399;-61
2022/10/12 06:03:13;;;;;;;1.75;1.58;;;20.70;49.20;;;;;;4855242;29;45445;-60
2022/10/12 06:05:38;;;;;;;2.85;1.20;;;20.70;49.20;;;;;;4858141;29;45631;-59
2022/10/12 06:08:04;;;;;;;1.60;1.48;;;20.70;49.10;;;;;;4854583;29;45207;-60
2022/10/12 06:10:29;;;;;;;1.67;1.10;;;20.70;49.10;;;;;;4860475;29;44850;-62
2022/10/12 06:12:55;;;;;;;1.23;1.00;;;20.80;49.10;;;;;;4858764;29;45174;-62
2022/10/12 06:15:20;;;;;;;1.20;1.10;;;20.90;49.00;;;;;;4857171;29;45303;-60
2022/10/12 06:17:46;;;;;;;1.75;1.00;;;21.00;48.80;;;;;;4873040;29;45661;-61
2022/10/12 06:20:11;;;;;;;;;;;21.20;48.60;;;;;;4854832;29;45142;-61
2022/10/12 06:22:37;;;;;;;;;;;21.30;48.40;;;;;;4841150;29;45328;-60
2022/10/12 06:25:02;;;;;;;;;;;21.50;48.20;;;;;;4858403;29;46530;-61
2022/10/12 06:27:28;;;;;;;;;;;21.60;48.00;;;;;;4859188;29;45381;-62
2022/10/12 06:29:53;;;;;;;;;;;21.70;47.80;;;;;;4859108;29;45511;-62
2022/10/12 06:32:19;;;;;;;;;;;21.80;47.70;;;;;;4857649;29;45059;-62
2022/10/12 06:34:45;;;;;;;;;;;21.90;47.60;;;;;;4854122;29;45477;-61
2022/10/12 06:37:10;;;;;;;;;;;22.10;47.60;;;;;;4842582;29;46144;-63
2022/10/12 06:39:36;;;;;;;;;;;22.20;47.50;;;;;;4857056;29;45468;-61
2022/10/12 06:42:02;;;;;;;;;;;22.30;47.40;;;;;;4855441;29;45333;-63
2022/10/12 06:44:27;;;;;;;;;;;22.40;47.30;;;;;;4857014;29;45753;-62
2022/10/12 06:46:53;;;;;;;;;;;22.50;47.20;;;;;;4855800;29;45197;-60
2022/10/12 06:49:18;;;;;;;;;;;22.60;47.00;;;;;;4854674;29;45467;-61
2022/10/12 06:51:44;;;;;;;;;;;22.70;47.00;;;;;;4857722;29;45634;-61
2022/10/12 06:54:09;;;;;;;;;;;22.70;46.90;;;;;;4859721;29;45004;-61
2022/10/12 06:56:37;;;;;;;;;;;22.80;46.80;;;;;;4855447;29;46481;-62
2022/10/12 06:59:02;;;;;;;;;;;22.90;46.70;;;;;;4853058;29;46822;-61
2022/10/12 07:01:27;;;;;;;;;;;23.00;46.60;;;;;;4865393;29;45390;-61
2022/10/12 07:03:53;;;;;;;;;;;23.00;46.50;;;;;;4881454;28;44981;-61
2022/10/12 07:06:18;;;;;;;;;;;23.10;46.50;;;;;;4876687;29;45672;-62
2022/10/12 07:08:44;;;;;;;;;;;23.10;46.40;;;;;;4879300;29;45423;-63
2022/10/12 07:11:10;;;;;;;;;;;23.20;46.30;;;;;;4878553;29;45065;-61
2022/10/12 07:13:36;;;;;;;;;;;23.30;46.30;;;;;;4876345;29;45653;-61
2022/10/12 07:16:01;;;;;;;;;;;23.40;46.20;;;;;;4877809;29;45749;-61
2022/10/12 07:18:27;;;;;;;;;;;23.40;46.10;;;;;;4857880;29;45608;-62
2022/10/12 07:20:55;;;;;;;0.75;0.60;;;23.50;46.00;;;;;;4860382;29;45166;-62
2022/10/12 07:23:21;;;;;;;1.25;0.93;;;23.50;46.10;;;;;;4875808;29;45397;-62
2022/10/12 07:25:51;;;;;;;2.15;1.10;;;23.60;46.10;;;;;;4859160;29;45684;-63
2022/10/12 07:28:17;;;;;;;3.03;1.13;;;23.70;46.00;;;;;;4860531;29;45282;-62
2022/10/12 07:30:42;;;;;;;1.05;0.80;;;23.70;46.00;;;;;;4849934;29;45474;-62
2022/10/12 07:33:08;;;;;;;1.10;0.82;;;23.80;46.00;;;;;;4859087;29;45500;-61
2022/10/12 07:35:34;;;;;;;4.22;1.00;;;23.80;45.90;;;;;;4878108;29;47010;-62
2022/10/12 07:37:59;;;;;;;1.00;0.90;;;23.90;45.80;;;;;;4878859;29;45382;-62
2022/10/12 07:40:25;;;;;;;0.98;0.90;;;24.00;45.80;;;;;;4857319;29;45572;-62
2022/10/12 07:42:51;;;;;;;1.27;0.82;;;24.10;46.40;;;;;;4824321;29;45207;-62
2022/10/12 07:45:17;;;;;;;1.95;1.00;;;24.10;45.70;;;;;;4859198;29;48141;-62
2022/10/12 07:47:42;;;;;;;1.77;1.30;;;24.20;45.70;;;;;;4844008;29;44696;-62
2022/10/12 07:50:08;;;;;;;1.45;0.90;;;24.20;45.60;;;;;;4877621;29;44879;-61
2022/10/12 07:52:34;;;;;;;1.92;1.10;;;24.30;45.50;;;;;;4877349;29;44942;-62
2022/10/12 07:54:59;;;;;;;1.15;1.00;;;24.30;45.40;;;;;;4874933;29;46380;-63
2022/10/12 07:57:25;;;;;;;1.33;1.02;;;24.40;45.40;;;;;;4872326;29;46140;-62
2022/10/12 07:59:50;;;;;;;1.40;1.20;;;24.40;45.30;;;;;;4857524;29;45629;-64
2022/10/12 08:02:16;;;;;;;1.20;1.10;;;24.40;45.20;;;;;;4871608;29;45823;-61
2022/10/12 08:04:42;;;;;;;3.25;1.10;;;24.50;45.20;;;;;;4863487;29;46229;-61
2022/10/12 08:07:07;;;;;;;1.17;0.90;;;24.50;45.10;;;;;;4877885;29;45512;-62
2022/10/12 08:09:34;;;;;;;1.55;1.30;;;24.50;45.10;;;;;;4876051;29;45804;-61
2022/10/12 08:12:00;;;;;;;2.95;0.90;;;24.60;45.10;;;;;;4875631;29;46197;-63
2022/10/12 08:14:27;;;;;;;1.20;0.90;;;24.60;45.10;;;;;;4875191;29;45595;-62
2022/10/12 08:16:53;;;;;;;1.50;1.20;;;24.60;45.00;;;;;;4856653;29;45229;-62
2022/10/12 08:19:18;;;;;;;1.58;0.80;;;24.70;45.00;;;;;;4875207;29;45016;-63
2022/10/12 08:21:44;;;;;;;1.70;1.20;;;24.70;44.90;;;;;;4874511;29;45259;-62
2022/10/12 08:24:10;;;;;;;1.08;0.90;;;24.70;44.90;;;;;;4872528;29;45893;-61
2022/10/12 08:26:36;;;;;;;1.10;1.00;;;24.80;44.80;;;;;;4843320;29;46077;-62
2022/10/12 08:29:02;;;;;;;1.27;0.88;;;24.80;44.80;;;;;;4871234;29;45268;-61
2022/10/12 08:31:27;;;;;;;1.30;0.80;;;24.80;44.80;;;;;;4856857;29;45506;-62
2022/10/12 08:33:53;;;;;;;1.20;1.08;;;24.90;44.70;;;;;;4875377;29;45443;-63
2022/10/12 08:36:19;;;;;;;1.33;0.90;;;25.00;44.70;;;;;;4874997;29;44613;-62
2022/10/12 08:38:54;;;;;;;1.10;0.88;;;25.00;44.60;;;;;;4874031;29;45650;-61
2022/10/12 08:41:52;;;;;;;0.80;0.80;;;25.10;44.50;;;;;;4855239;29;45395;-61
2022/10/12 08:44:29;;;;;;;1.13;1.02;;;25.10;44.10;;;;;;4868687;29;45630;-62
2022/10/12 08:46:56;;;;;;;1.67;0.90;;;25.20;44.30;;;;;;4853153;29;45661;-60
2022/10/12 08:49:23;;;;;;;1.25;0.90;;;25.30;44.30;;;;;;4857729;29;44955;-61
2022/10/12 08:51:51;;;;;;;1.27;1.00;;;25.30;44.30;;;;;;4859019;29;45553;-62
2022/10/12 08:54:19;;;;;;;0.75;0.75;;;25.30;44.20;;;;;;4857906;29;46631;-62
2022/10/12 08:56:44;;;;;;;1.08;0.82;;;25.30;44.20;;;;;;4846404;29;45103;-61
2022/10/12 08:59:14;;;;;;;2.70;1.10;;;25.40;44.20;;;;;;4874761;29;45706;-63
2022/10/12 09:02:31;;;;;;;1.10;0.90;;;25.40;44.00;;;;;;4849325;29;45624;-63
2022/10/12 09:05:12;;;;;;;1.02;0.90;;;25.40;43.70;;;;;;4833480;29;45434;-63
2022/10/12 09:07:41;;;;;;;1.55;1.00;;;25.40;44.00;;;;;;4841947;29;44722;-62
2022/10/12 09:10:41;;;;;;;0.80;0.80;;;25.50;44.00;;;;;;4865497;29;45198;-62
2022/10/12 09:13:30;;;;;;;1.10;0.95;;;25.50;43.60;;;;;;4867532;29;45630;-61
2022/10/12 09:16:02;;;;;;;1.35;1.05;;;25.60;43.70;;;;;;4853553;29;45517;-63
2022/10/12 09:18:38;;;;;;;1.00;0.90;;;25.60;43.70;;;;;;4836881;29;45011;-62
2022/10/12 09:21:06;;;;;;;1.05;0.82;;;25.60;43.60;;;;;;4851052;29;45319;-62
2022/10/12 09:23:39;;;;;;;1.00;0.93;;;25.70;43.90;;;;;;4851437;29;44745;-62
2022/10/12 09:26:15;;;;;;;1.48;1.00;;;25.70;43.80;;;;;;4873707;29;45152;-62
2022/10/12 09:28:46;;;;;;;1.60;0.90;;;25.70;43.60;;;;;;4848694;29;45631;-63
2022/10/12 09:31:30;;;;;;;1.02;0.82;;;25.80;43.70;;;;;;4852324;29;45264;-63
2022/10/12 09:33:57;;;;;;;1.13;0.98;;;25.80;43.40;;;;;;4867860;29;47137;-62
2022/10/12 09:36:24;;;;;;;1.25;1.00;;;25.80;43.50;;;;;;4852601;29;45295;-62
2022/10/12 09:38:50;;;;;;;1.13;1.00;;;25.90;43.70;;;;;;4865646;29;45656;-62
2022/10/12 09:41:23;;;;;;;1.02;0.93;;;25.90;43.60;;;;;;4838252;29;44862;-60
2022/10/12 09:43:59;;;;;;;1.38;1.08;;;25.90;43.50;;;;;;4838960;29;45669;-62
2022/10/12 09:46:30;;;;;;;0.95;0.90;;;26.00;43.30;;;;;;4854218;29;46891;-62
2022/10/12 09:48:57;;;;;;;1.05;0.90;;;26.00;43.40;;;;;;4853478;29;45208;-63
2022/10/12 09:51:23;;;;;;;0.88;0.70;;;26.00;43.50;;;;;;4835700;29;45229;-63
2022/10/12 09:53:48;;;;;;;0.98;0.70;;;26.10;43.50;;;;;;4836350;29;45130;-62
2022/10/12 09:56:26;;;;;;;0.98;0.90;;;26.10;43.40;;;;;;4851185;29;45325;-62
2022/10/12 09:58:58;;;;;;;1.10;1.00;;;26.10;43.10;;;;;;4844585;29;44981;-62
2022/10/12 10:01:28;;;;;;;1.13;0.87;;;26.20;43.30;;;;;;4838741;29;45260;-62
2022/10/12 10:04:09;;;;;;;0.73;0.70;;;26.20;43.30;;;;;;4812993;29;45642;-62
2022/10/12 10:06:36;;;;;;;3.63;0.68;;;26.20;43.00;;;;;;4858734;29;45579;-61
2022/10/12 10:09:01;;;;;;;1.77;1.10;;;26.20;43.30;;;;;;4876288;29;45285;-60
2022/10/12 10:11:30;;;;;;;0.98;0.88;;;26.30;43.30;;;;;;4858712;29;45744;-61
2022/10/12 10:13:56;;;;;;;0.70;0.70;;;26.30;43.30;;;;;;4838519;29;45299;-62
2022/10/12 10:16:23;;;;;;;1.88;1.00;;;26.30;43.20;;;;;;4857918;29;46143;-61
2022/10/12 10:18:51;;;;;;;1.00;0.88;;;26.40;43.20;;;;;;4825747;29;44989;-62
2022/10/12 10:21:24;;;;;;;2.63;0.80;;;26.40;43.10;;;;;;4876156;29;45431;-61
2022/10/12 10:24:00;;;;;;;0.88;0.82;;;26.40;42.90;;;;;;4870004;29;45272;-60
2022/10/12 10:26:27;;;;;;;0.80;0.77;;;26.40;43.00;;;;;;4853244;29;45485;-63
2022/10/12 10:29:17;;;;;;;0.90;0.80;;;26.50;43.00;;;;;;4863840;29;45343;-61
2022/10/12 10:31:45;;;;;;;3.13;0.95;;;26.50;43.00;;;;;;4846262;29;45375;-61
2022/10/12 10:34:17;;;;;;;1.25;1.15;;;26.50;43.00;;;;;;4875978;29;45156;-60
2022/10/12 10:36:45;;;;;;;2.97;1.00;;;26.50;43.00;;;;;;4859328;29;45442;-62
2022/10/12 10:39:27;;;;;;;1.00;0.80;;;26.60;43.00;;;;;;4853623;29;45316;-61
2022/10/12 10:41:54;;;;;;;1.87;0.87;;;26.60;42.80;;;;;;4828619;29;45310;-63
2022/10/12 10:44:30;;;;;;;1.10;0.90;;;26.60;42.90;;;;;;4877805;29;45223;-62
2022/10/12 10:47:01;;;;;;;0.85;0.82;;;26.60;42.70;;;;;;4873622;29;46490;-61
2022/10/12 10:49:41;;;;;;;0.73;0.73;;;26.50;42.90;;;;;;4843724;29;45498;-62
2022/10/12 10:52:22;;;;;;;1.20;0.70;;;26.50;42.90;;;;;;4861701;29;45324;-62
2022/10/12 10:54:48;;;;;;;0.60;0.60;;;26.40;43.20;;;;;;4848895;29;44746;-62
2022/10/12 10:57:19;;;;;;;0.75;0.68;;;26.30;43.30;;;;;;4860603;29;45471;-61
2022/10/12 10:59:49;;;;;;;1.15;0.82;;;26.30;43.20;;;;;;4850884;29;45279;-62
2022/10/12 11:02:29;;;;;;;1.42;1.05;;;26.30;43.40;;;;;;4875640;29;45427;-62
2022/10/12 11:05:33;;;;;;;1.17;1.00;;;26.20;43.30;;;;;;4877671;29;45102;-62
2022/10/12 11:08:01;;;;;;;1.10;0.77;;;26.20;43.30;;;;;;4874220;29;46106;-62
2022/10/12 11:10:29;;;;;;;2.95;0.98;;;26.20;43.50;;;;;;4841630;29;45117;-61
2022/10/12 11:13:06;;;;;;;1.10;1.00;;;26.10;43.50;;;;;;4878474;29;46631;-62
2022/10/12 11:15:53;;;;;;;1.13;1.02;;;26.10;43.60;;;;;;4860128;29;45034;-60
2022/10/12 11:18:28;;;;;;;4.15;1.20;;;26.00;43.50;;;;;;4839898;29;45208;-62
2022/10/12 11:20:58;;;;;;;1.42;0.90;;;26.00;43.70;;;;;;4875548;29;44688;-62
2022/10/12 11:23:49;;;;;;;0.95;0.85;;;26.00;43.70;;;;;;4858538;29;44732;-63
2022/10/12 11:26:23;;;;;;;1.00;0.90;;;26.00;43.60;;;;;;4877002;29;45545;-62
2022/10/12 11:28:49;;;;;;;1.23;0.98;;;25.90;43.70;;;;;;4875857;29;45478;-61
2022/10/12 11:31:27;;;;;;;1.50;1.13;;;25.90;43.80;;;;;;4858389;29;45266;-62
2022/10/12 11:33:53;;;;;;;1.55;1.02;;;25.90;43.80;;;;;;4860716;29;45449;-60
2022/10/12 11:36:21;;;;;;;4.10;0.90;;;25.80;43.90;;;;;;4846117;29;45524;-62
2022/10/12 11:39:00;;;;;;;1.10;0.90;;;25.80;44.00;;;;;;4861892;29;45000;-62
2022/10/12 11:41:44;;;;;;;1.35;0.88;;;25.80;44.00;;;;;;4859237;29;45506;-62
2022/10/12 11:44:36;;;;;;;1.88;0.98;;;25.80;44.10;;;;;;4832018;29;45463;-63
2022/10/12 11:47:33;;;;;;;1.00;0.90;;;25.70;44.00;;;;;;4852154;29;45024;-64
2022/10/12 11:50:04;;;;;;;2.08;1.02;;;25.70;44.00;;;;;;4862505;29;45349;-62
2022/10/12 11:52:38;;;;;;;1.05;0.95;;;25.60;44.10;;;;;;4861346;29;44682;-61
2022/10/12 11:55:29;;;;;;;1.35;0.90;;;25.70;44.20;;;;;;4859064;29;45425;-62
2022/10/12 11:57:55;;;;;;;0.95;0.95;;;25.60;44.10;;;;;;4878889;29;45561;-61
2022/10/12 12:00:32;;;;;;;1.70;1.30;;;25.60;44.20;;;;;;4828075;29;45437;-61
2022/10/12 12:03:15;;;;;;;3.35;1.05;;;25.60;44.30;;;;;;4869255;29;45480;-61
2022/10/12 12:05:41;;;;;;;2.47;0.90;;;25.50;44.30;;;;;;4856473;29;45713;-63
2022/10/12 12:08:07;;;;;;;1.33;0.90;;;25.50;44.30;;;;;;4859372;29;45077;-62
2022/10/12 12:10:36;;;;;;;1.15;1.00;;;25.50;44.40;;;;;;4844157;29;45958;-60
2022/10/12 12:13:11;;;;;;;1.35;1.23;;;25.40;44.40;;;;;;4875360;29;45505;-60
2022/10/12 12:15:57;;;;;;;1.33;1.08;;;25.40;44.40;;;;;;4871861;29;45000;-60
2022/10/12 12:18:23;;;;;;;1.35;1.02;;;25.40;44.50;;;;;;4862270;29;45741;-61
2022/10/12 12:21:01;;;;;;;0.90;0.80;;;25.40;44.60;;;;;;4877748;29;45365;-61
2022/10/12 12:23:36;;;;;;;1.88;1.17;;;25.40;44.60;;;;;;4874098;29;45252;-62
2022/10/12 12:26:04;;;;;;;2.17;1.17;;;25.40;44.70;;;;;;4858270;29;45368;-62
2022/10/12 12:28:30;;;;;;;3.10;1.17;;;25.30;44.70;;;;;;4876904;29;45219;-62
2022/10/12 12:30:56;;;;;;;1.13;1.02;;;25.30;44.70;;;;;;4844142;29;47218;-63
2022/10/12 12:33:26;;;;;;;1.17;1.08;;;25.30;44.80;;;;;;4845853;29;45309;-63
2022/10/12 12:35:57;;;;;;;1.55;1.10;;;25.30;44.80;;;;;;4842538;29;45352;-62
2022/10/12 12:38:33;;;;;;;1.00;0.90;;;25.30;44.90;;;;;;4859561;29;45348;-63
2022/10/12 12:41:44;;;;;;;2.08;1.10;;;25.20;44.90;;;;;;4856264;29;45353;-63
2022/10/12 12:44:41;;;;;;;1.00;0.90;;;25.20;45.00;;;;;;4863183;29;44851;-63
2022/10/12 12:47:09;;;;;;;1.05;0.95;;;25.20;45.00;;;;;;4877402;29;45056;-62
2022/10/12 12:49:46;;;;;;;1.08;0.98;;;25.10;45.00;;;;;;4872998;29;46141;-63
2022/10/12 12:52:25;;;;;;;1.48;0.88;;;25.10;45.10;;;;;;4872418;29;45445;-63
2022/10/12 12:55:10;;;;;;;2.00;1.20;;;25.10;45.10;;;;;;4874947;29;45256;-59
2022/10/12 12:58:08;;;;;;;0.77;0.75;;;25.10;45.20;;;;;;4872435;29;45283;-61
2022/10/12 13:00:46;;;;;;;2.95;1.15;;;25.10;45.30;;;;;;4872802;29;45398;-62
2022/10/12 13:03:47;;;;;;;1.73;1.35;;;25.10;45.30;;;;;;4857195;29;46475;-61
2022/10/12 13:06:30;;;;;;;1.55;1.00;;;25.00;45.30;;;;;;4861492;29;45518;-63
2022/10/12 13:09:17;;;;;;;1.92;1.20;;;25.00;45.30;;;;;;4878715;29;45485;-63
2022/10/12 13:12:05;;;;;;;1.40;1.20;;;25.00;45.30;;;;;;4873118;23;44825;-62
2022/10/12 13:14:50;;;;;;;1.23;1.10;;;25.00;45.30;;;;;;4859724;28;45480;-60
2022/10/12 13:17:28;;;;;;;1.70;1.17;;;25.00;45.40;;;;;;4861784;29;45099;-62
2022/10/12 13:19:54;;;;;;;1.38;1.13;;;25.00;45.50;;;;;;4885038;29;45289;-61
2022/10/12 13:22:30;;;;;;;0.93;0.90;;;25.00;45.40;;;;;;4845283;29;45783;-62
2022/10/12 13:25:07;;;;;;;1.05;0.95;;;24.90;45.50;;;;;;4845010;29;45450;-60
2022/10/12 13:27:45;;;;;;;1.08;0.98;;;24.90;45.50;;;;;;4846983;29;46049;-62
2022/10/12 13:30:14;;;;;;;2.00;1.17;;;24.90;45.60;;;;;;4842906;29;45132;-63
2022/10/12 13:33:02;;;;;;;1.27;1.02;;;24.90;45.50;;;;;;4879937;29;45621;-61
2022/10/12 13:35:30;;;;;;;1.30;1.17;;;24.90;45.60;;;;;;4858220;29;46311;-61
2022/10/12 13:38:00;;;;;;;2.22;1.05;;;24.90;45.60;;;;;;4861971;29;45218;-62
2022/10/12 13:40:37;;;;;;;1.38;1.23;;;24.90;45.70;;;;;;4877896;29;45143;-62
2022/10/12 13:43:18;;;;;;;1.42;1.13;;;24.90;45.70;;;;;;4860128;29;44758;-62
2022/10/12 13:45:45;;;;;;;1.25;1.05;;;24.80;45.70;;;;;;4858047;29;46876;-62
2022/10/12 13:48:17;;;;;;;2.63;1.20;;;24.80;45.70;;;;;;4844480;29;45293;-62
2022/10/12 13:50:53;;;;;;;1.95;1.10;;;24.80;45.70;;;;;;4873720;29;45586;-61
2022/10/12 13:53:19;;;;;;;1.40;1.00;;;24.80;45.80;;;;;;4851249;29;45706;-61
2022/10/12 13:56:17;;;;;;;1.60;1.10;;;24.80;45.80;;;;;;4861695;29;46521;-62
2022/10/12 13:58:43;;;;;;;2.05;1.08;;;24.80;46.00;;;;;;4848110;29;45718;-59
2022/10/12 14:01:12;;;;;;;1.38;1.00;;;24.80;45.90;;;;;;4864445;29;44682;-63
2022/10/12 14:03:42;;;;;;;1.83;1.20;;;24.80;46.00;;;;;;4874229;29;45185;-61
2022/10/12 14:06:23;;;;;;;1.60;1.38;;;24.80;46.00;;;;;;4872518;29;46416;-62
2022/10/12 14:08:49;;;;;;;1.30;1.20;;;24.80;46.00;;;;;;4858913;29;44662;-58
2022/10/12 14:11:16;;;;;;;1.15;0.88;;;24.80;46.00;;;;;;4868478;29;45357;-61
2022/10/12 14:13:41;;;;;;;1.40;1.00;;;24.70;45.90;;;;;;4863064;29;45610;-60
2022/10/12 14:16:07;;;;;;;1.27;1.13;;;24.70;46.00;;;;;;4868344;29;45313;-61
2022/10/12 14:18:34;;;;;;;1.95;1.13;;;24.80;46.10;;;;;;4847571;29;45262;-60
2022/10/12 14:21:04;;;;;;;1.58;1.15;;;24.70;46.00;;;;;;4863409;29;45467;-61
2022/10/12 14:23:29;;;;;;;1.15;1.00;;;24.70;46.10;;;;;;4865222;29;45359;-60
2022/10/12 14:25:55;;;;;;;1.10;0.95;;;24.70;46.10;;;;;;4859577;29;45268;-63
2022/10/12 14:28:29;;;;;;;1.75;1.40;;;24.70;46.20;;;;;;4866792;29;44692;-63
2022/10/12 14:30:55;;;;;;;1.75;1.10;;;24.70;46.30;;;;;;4865185;29;46949;-63
2022/10/12 14:33:22;;;;;;;1.15;1.05;;;24.70;46.30;;;;;;4869105;29;45247;-62
2022/10/12 14:35:48;;;;;;;1.95;1.20;;;24.70;46.20;;;;;;4840079;29;46175;-61
2022/10/12 14:38:44;;;;;;;1.25;0.95;;;24.70;46.30;;;;;;4880784;29;45300;-61
2022/10/12 14:41:33;;;;;;;1.52;1.30;;;24.70;46.50;;;;;;4866647;29;44817;-62
2022/10/12 14:44:10;;;;;;;1.20;1.10;;;24.60;46.40;;;;;;4860219;29;44740;-64
2022/10/12 14:46:47;;;;;;;1.52;1.05;;;24.60;46.40;;;;;;4858412;29;46222;-60
2022/10/12 14:49:31;;;;;;;1.70;1.10;;;24.60;46.40;;;;;;4883924;29;44837;-62
2022/10/12 14:51:57;;;;;;;0.80;0.77;;;24.60;46.40;;;;;;4868327;29;45387;-62
2022/10/12 14:54:22;;;;;;;2.15;1.33;;;24.50;46.40;;;;;;4867048;29;45348;-59
2022/10/12 14:56:48;;;;;;;1.10;1.00;;;24.60;46.40;;;;;;4883570;29;45589;-62
2022/10/12 14:59:14;;;;;;;1.52;1.15;;;24.50;46.40;;;;;;4883959;29;45195;-62
2022/10/12 15:01:39;;;;;;;1.55;1.15;;;24.50;46.40;;;;;;4847673;29;45335;-63
2022/10/12 15:04:05;;;;;;;1.92;1.25;;;24.50;46.40;;;;;;4860473;29;46329;-61
2022/10/12 15:06:30;;;;;;;1.40;1.30;;;24.60;46.50;;;;;;4882346;29;46206;-62
2022/10/12 15:08:56;;;;;;;1.52;1.10;;;24.50;46.50;;;;;;4876707;29;45341;-61
2022/10/12 15:11:22;;;;;;;1.95;1.30;;;24.50;46.50;;;;;;4865925;29;45238;-61
2022/10/12 15:13:48;;;;;;;1.50;1.33;;;24.50;46.50;;;;;;4886419;29;45378;-63
2022/10/12 15:16:19;;;;;;;1.20;1.00;;;24.50;46.50;;;;;;4867605;29;44969;-63
2022/10/12 15:18:45;;;;;;;1.52;1.30;;;24.50;46.50;;;;;;4860943;29;45190;-64
2022/10/12 15:21:11;;;;;;;1.23;1.00;;;24.50;46.60;;;;;;4848237;29;45435;-63
2022/10/12 15:23:36;;;;;;;1.88;1.48;;;24.50;46.60;;;;;;4882395;29;45363;-62
2022/10/12 15:26:02;;;;;;;1.80;1.30;;;24.50;46.60;;;;;;4833882;29;45397;-63
2022/10/12 15:28:28;;;;;;;1.30;1.10;;;24.40;46.60;;;;;;4865144;29;46093;-62
2022/10/12 15:30:57;;;;;;;2.30;1.45;;;24.40;46.60;;;;;;4845862;29;45201;-63
2022/10/12 15:33:23;;;;;;;2.95;1.80;;;24.40;46.60;;;;;;4857203;29;45896;-61
2022/10/12 15:35:49;;;;;;;2.00;1.77;;;24.40;46.70;;;;;;4863699;29;45665;-59
2022/10/12 15:38:15;;;;;;;1.70;1.50;;;24.40;46.80;;;;;;4878314;29;45243;-63
2022/10/12 15:40:40;;;;;;;1.70;1.30;;;24.40;46.80;;;;;;4851570;29;44705;-62
2022/10/12 15:43:06;;;;;;;1.75;1.63;;;24.30;46.80;;;;;;4854665;29;45497;-62
2022/10/12 15:45:33;;;;;;;2.00;1.40;;;24.30;46.80;;;;;;4873548;29;46311;-61
2022/10/12 15:47:59;;;;;;;2.88;1.63;;;24.30;46.80;;;;;;4841204;29;45790;-60
2022/10/12 15:50:27;;;;;;;2.20;1.83;;;24.30;46.90;;;;;;4848119;29;45347;-63
2022/10/12 15:52:56;;;;;;;2.58;1.95;;;24.30;46.90;;;;;;4851913;29;45738;-61
2022/10/12 15:55:24;;;;;;;2.58;1.80;;;24.20;46.90;;;;;;4842517;29;46488;-61
2022/10/12 15:57:50;;;;;;;2.50;1.67;;;24.20;47.00;;;;;;4854701;29;45298;-60
2022/10/12 16:00:17;;;;;;;3.17;1.58;;;24.20;47.00;;;;;;4859417;29;45319;-61
2022/10/12 16:02:43;;;;;;;3.38;1.92;;;24.10;47.00;;;;;;4854540;29;45810;-61
2022/10/12 16:05:26;;;;;;;1.58;1.48;;;24.10;47.00;;;;;;4855626;29;45944;-60
2022/10/12 16:07:52;;;;;;;1.73;1.33;;;24.10;47.10;;;;;;4877175;29;45549;-60